Details for BA - British Airways at EGKK




Go Back


Latest METAR
Local Time

EGKK 181250Z 23013KT 9999 SCT026 20/14 Q1011
18/09/2018, 14:17:35

Description
Results
BA - British Airways Logo
Number of Pilots based at EGKK
6 Pilots Based here
Number of BA - British Airways Flights Departed from EGKK
43 Flights Departed
Number of BA - British Airways Flights Arrived at EGKK
35 Flights Arrived
Number of BA - British Airways Schedules Departing from EGKK
340 Schedules
Number of BA - British Airways Schedules Arriving at EGKK
348 Schedules
Number of BA - British Airways Schedules Departing from EGKK availible today
70 Schedules Today
Number of BA - British Airways Schedules Arriving at EGKK availible today
69 Schedules Today
Average Landing Rate at EGKK
-229 fpm
BA - British Airways Average Landing Rate at EGKK
-206 fpm
Total Fuel Purchased at EGKK by BA - British Airways
198,209.38 kgs / 436,972.40 lbs

Pilots Based at EGKK


Pilot ID
Pilot Name
Pilot Rank
No. of Flights
No. of Flying Hours
Dan Symons
114
437.51
George Jones
35
95.53
Maurice Lyon
175
825.49
Matthew Smith
93
700.29
William Shaw
180
430.37
Jim Donne
0
0
Content